createdAt,value
2023-05-09T00:01:40.221Z,100696.97
2023-05-09T00:04:24.405Z,100691.78
2023-05-09T00:07:08.357Z,100691.91
2023-05-09T00:09:52.278Z,100689.31
2023-05-09T00:12:37.005Z,100683.50
2023-05-09T00:15:22.348Z,100677.06
2023-05-09T00:18:06.500Z,100641.41
2023-05-09T00:20:51.030Z,100631.78
2023-05-09T00:23:34.998Z,100637.47
2023-05-09T00:26:19.049Z,100644.56
2023-05-09T00:29:04.419Z,100683.81
2023-05-09T00:31:50.038Z,100648.91
2023-05-09T00:34:34.285Z,100653.44
2023-05-09T00:37:19.417Z,100693.31
2023-05-09T00:40:03.686Z,100664.16
2023-05-09T00:42:47.813Z,100679.00
2023-05-09T00:45:32.479Z,100695.34
2023-05-09T00:48:18.375Z,100667.63
2023-05-09T00:51:02.612Z,100673.50
2023-05-09T00:53:47.191Z,100706.91
2023-05-09T00:56:31.494Z,100709.75
2023-05-09T00:59:17.489Z,100713.22
2023-05-09T01:02:02.078Z,100723.22
2023-05-09T01:04:48.508Z,100719.00
2023-05-09T01:07:39.506Z,100674.94
2023-05-09T01:10:32.996Z,100720.78
2023-05-09T01:13:25.110Z,100703.59
2023-05-09T01:16:15.564Z,100691.84
2023-05-09T01:19:09.305Z,100710.91
2023-05-09T01:21:57.334Z,100726.16
2023-05-09T01:25:07.323Z,100715.38
2023-05-09T01:27:59.318Z,100712.28
2023-05-09T01:30:48.165Z,100707.81
2023-05-09T01:33:35.092Z,100705.88
2023-05-09T01:36:21.481Z,100716.25
2023-05-09T01:39:07.352Z,100707.16
2023-05-09T01:41:54.839Z,100702.41
2023-05-09T01:44:41.252Z,100709.81
2023-05-09T01:47:28.324Z,100705.59
2023-05-09T01:50:14.123Z,100700.88
2023-05-09T01:52:59.906Z,100703.72
2023-05-09T01:55:45.043Z,100701.84
2023-05-09T01:58:31.604Z,100708.72
2023-05-09T02:01:16.145Z,100681.59
2023-05-09T02:04:01.933Z,100703.91
2023-05-09T02:06:50.753Z,100708.91
2023-05-09T02:09:35.131Z,100713.22
2023-05-09T02:12:19.078Z,100707.63
2023-05-09T02:15:03.142Z,100703.19
2023-05-09T02:17:51.075Z,100700.41
2023-05-09T02:20:36.714Z,100696.16
2023-05-09T02:23:21.363Z,100665.00
2023-05-09T02:26:05.558Z,100711.25
2023-05-09T02:28:51.119Z,100712.16
2023-05-09T02:31:36.190Z,100711.16
2023-05-09T02:34:21.272Z,100707.25
2023-05-09T02:37:06.871Z,100723.53
2023-05-09T02:39:52.429Z,100709.97
2023-05-09T02:42:36.687Z,100715.53
2023-05-09T02:45:20.643Z,100705.81
2023-05-09T02:48:06.873Z,100707.16
2023-05-09T02:50:52.733Z,100713.28
2023-05-09T02:53:38.204Z,100716.38
2023-05-09T02:56:22.292Z,100709.66
2023-05-09T02:59:06.234Z,100717.28
2023-05-09T03:01:50.919Z,100710.84
2023-05-09T03:04:34.829Z,100714.66
2023-05-09T03:07:18.968Z,100709.28
2023-05-09T03:10:04.770Z,100706.56
2023-05-09T03:12:49.645Z,100711.47
2023-05-09T03:15:33.589Z,100710.25
2023-05-09T03:18:17.788Z,100714.81
2023-05-09T03:21:01.953Z,100720.06
2023-05-09T03:23:47.431Z,100725.25
2023-05-09T03:26:32.722Z,100726.94
2023-05-09T03:29:18.187Z,100719.59
2023-05-09T03:32:02.478Z,100717.22
2023-05-09T03:34:46.703Z,100725.66
2023-05-09T03:37:30.754Z,100715.56
2023-05-09T03:40:15.438Z,100720.88
2023-05-09T03:43:08.194Z,100719.16
2023-05-09T03:45:53.556Z,100720.78
2023-05-09T03:48:37.538Z,100712.44
2023-05-09T03:51:22.309Z,100682.50
2023-05-09T03:54:07.220Z,100729.72
2023-05-09T03:56:51.991Z,100730.41
2023-05-09T03:59:37.334Z,100727.47
2023-05-09T04:02:21.972Z,100743.69
2023-05-09T04:05:06.786Z,100735.31
2023-05-09T04:07:51.370Z,100739.94
2023-05-09T04:10:35.936Z,100746.72
2023-05-09T04:13:21.319Z,100745.22
2023-05-09T04:16:07.762Z,100756.84
2023-05-09T04:18:52.371Z,100750.13
2023-05-09T04:21:36.505Z,100751.22
2023-05-09T04:24:22.268Z,100763.81
2023-05-09T04:27:07.396Z,100757.44
2023-05-09T04:29:53.849Z,100769.78
2023-05-09T04:32:39.778Z,100778.16
2023-05-09T04:35:24.231Z,100770.66
2023-05-09T04:38:10.205Z,100776.22
2023-05-09T04:40:55.550Z,100773.59
2023-05-09T04:43:39.823Z,100777.31
2023-05-09T04:46:25.749Z,100782.91
2023-05-09T04:49:12.197Z,100766.56
2023-05-09T04:51:56.428Z,100780.59
2023-05-09T04:54:41.192Z,100795.00
2023-05-09T04:57:25.637Z,100757.34
2023-05-09T05:00:16.087Z,100798.69
2023-05-09T05:03:00.498Z,100789.44
2023-05-09T05:05:48.150Z,100800.50
2023-05-09T05:08:32.447Z,100798.69
2023-05-09T05:11:17.992Z,100797.19
2023-05-09T05:14:03.076Z,100803.34
2023-05-09T05:16:47.707Z,100790.22
2023-05-09T05:19:31.955Z,100795.91
2023-05-09T05:22:17.538Z,100799.88
2023-05-09T05:25:05.207Z,100784.25
2023-05-09T05:27:49.660Z,100775.72
2023-05-09T05:30:34.640Z,100779.13
2023-05-09T05:33:19.805Z,100777.28
2023-05-09T05:36:04.403Z,100779.59
2023-05-09T05:38:50.040Z,100802.75
2023-05-09T05:41:34.146Z,100817.88
2023-05-09T05:44:18.681Z,100765.28
2023-05-09T05:47:02.898Z,100798.31
2023-05-09T05:49:48.724Z,100804.59
2023-05-09T05:52:32.772Z,100809.91
2023-05-09T05:55:19.812Z,100804.88
2023-05-09T05:58:03.992Z,100801.59
2023-05-09T06:00:47.903Z,100796.09
2023-05-09T06:03:32.241Z,100808.97
2023-05-09T06:06:19.507Z,100812.38
2023-05-09T06:09:03.628Z,100809.19
2023-05-09T06:11:48.998Z,100812.13
2023-05-09T06:14:33.072Z,100812.47
2023-05-09T06:17:18.796Z,100806.06
2023-05-09T06:20:02.936Z,100795.47
2023-05-09T06:22:48.587Z,100801.84
2023-05-09T06:25:32.723Z,100786.50
2023-05-09T06:28:18.961Z,100808.53
2023-05-09T06:31:02.954Z,100786.41
2023-05-09T06:33:47.279Z,100776.75
2023-05-09T06:36:32.455Z,100782.59
2023-05-09T06:39:18.022Z,100825.25
2023-05-09T06:42:02.160Z,100797.84
2023-05-09T06:44:55.688Z,100836.69
2023-05-09T06:47:40.055Z,100830.00
2023-05-09T06:50:24.530Z,100823.06
2023-05-09T06:53:08.661Z,100795.53
2023-05-09T06:55:52.978Z,100808.47
2023-05-09T06:58:37.172Z,100783.75
2023-05-09T07:01:22.803Z,100790.00
2023-05-09T07:04:07.261Z,100785.25
2023-05-09T07:06:51.517Z,100784.69
2023-05-09T07:09:36.177Z,100781.19
2023-05-09T07:12:20.401Z,100788.28
2023-05-09T07:15:06.487Z,100819.59
2023-05-09T07:17:52.644Z,100794.53
2023-05-09T07:20:36.948Z,100830.84
2023-05-09T07:23:21.113Z,100827.91
2023-05-09T07:26:05.625Z,100775.25
2023-05-09T07:28:49.627Z,100821.97
2023-05-09T07:31:36.766Z,100826.88
2023-05-09T07:34:25.434Z,100805.44
2023-05-09T07:37:09.754Z,100797.41
2023-05-09T07:39:53.816Z,100801.91
2023-05-09T07:42:38.591Z,100830.78
2023-05-09T07:45:23.922Z,100806.34
2023-05-09T07:48:09.866Z,100831.66
2023-05-09T07:50:55.442Z,100837.53
2023-05-09T07:53:39.810Z,100842.25
2023-05-09T07:56:24.136Z,100844.84
2023-05-09T07:59:08.716Z,100838.13
2023-05-09T08:01:52.810Z,100842.47
2023-05-09T08:04:38.605Z,100812.50
2023-05-09T08:07:24.191Z,100840.63
2023-05-09T08:10:10.241Z,100827.06
2023-05-09T08:12:54.628Z,100804.06
2023-05-09T08:15:38.820Z,100812.19
2023-05-09T08:18:22.853Z,100834.88
2023-05-09T08:21:07.070Z,100834.59
2023-05-09T08:23:52.949Z,100841.31
2023-05-09T08:26:36.999Z,100809.16
2023-05-09T08:29:20.924Z,100833.47
2023-05-09T08:32:05.039Z,100831.72
2023-05-09T08:34:48.985Z,100826.91
2023-05-09T08:37:33.039Z,100828.50
2023-05-09T08:40:20.280Z,100836.06
2023-05-09T08:43:07.363Z,100844.91
2023-05-09T08:45:55.466Z,100844.69
2023-05-09T08:48:41.006Z,100842.75
2023-05-09T08:51:26.017Z,100830.94
2023-05-09T08:54:11.371Z,100834.16
2023-05-09T08:56:57.842Z,100824.91
2023-05-09T08:59:43.600Z,100830.22
2023-05-09T09:02:27.624Z,100830.81
2023-05-09T09:05:23.869Z,100813.31
2023-05-09T09:08:16.982Z,100822.00
2023-05-09T09:11:01.189Z,100819.94
2023-05-09T09:13:48.020Z,100774.78
2023-05-09T09:16:34.770Z,100781.06
2023-05-09T09:19:19.848Z,100813.53
2023-05-09T09:22:06.000Z,100781.22
2023-05-09T09:24:50.595Z,100776.81
2023-05-09T09:27:35.606Z,100766.41
2023-05-09T09:30:21.725Z,100812.78
2023-05-09T09:33:07.902Z,100810.31
2023-05-09T09:35:52.865Z,100792.47
2023-05-09T09:38:41.789Z,100790.16
2023-05-09T09:41:32.064Z,100787.94
2023-05-09T09:44:18.025Z,100792.44
2023-05-09T09:47:03.527Z,100794.59
2023-05-09T09:49:48.294Z,100792.84
2023-05-09T09:52:32.172Z,100803.31
2023-05-09T09:55:16.462Z,100813.81
2023-05-09T09:58:00.366Z,100796.28
2023-05-09T10:00:44.436Z,100796.91
2023-05-09T10:03:37.003Z,100750.72
2023-05-09T10:06:21.345Z,100795.84
2023-05-09T10:09:05.445Z,100807.56
2023-05-09T10:11:51.608Z,100816.66
2023-05-09T10:14:36.586Z,100812.66
2023-05-09T10:17:23.569Z,100820.16
2023-05-09T10:20:10.912Z,100808.13
2023-05-09T10:22:57.508Z,100807.28
2023-05-09T10:25:48.109Z,100816.13
2023-05-09T10:28:36.388Z,100819.69
2023-05-09T10:31:26.561Z,100816.72
2023-05-09T10:34:13.290Z,100817.09
2023-05-09T10:37:01.595Z,100814.75
2023-05-09T10:39:47.561Z,100779.22
2023-05-09T10:42:31.699Z,100797.75
2023-05-09T10:45:16.166Z,100792.91
2023-05-09T10:48:03.984Z,100790.25
2023-05-09T10:50:49.103Z,100811.22
2023-05-09T10:53:44.891Z,100799.03
2023-05-09T10:56:32.033Z,100817.81
2023-05-09T10:59:37.381Z,100791.66
2023-05-09T11:02:22.052Z,100812.19
2023-05-09T11:05:16.308Z,100816.19
2023-05-09T11:08:25.567Z,100817.72
2023-05-09T11:11:25.866Z,100790.25
2023-05-09T11:14:09.895Z,100809.22
2023-05-09T11:17:01.409Z,100777.75
2023-05-09T11:20:05.600Z,100816.19
2023-05-09T11:22:54.867Z,100824.19
2023-05-09T11:25:41.482Z,100816.97
2023-05-09T11:28:29.956Z,100819.69
2023-05-09T11:31:15.642Z,100809.28
2023-05-09T11:34:06.426Z,100832.19
2023-05-09T11:36:50.532Z,100815.81
2023-05-09T11:39:34.584Z,100831.34
2023-05-09T11:42:19.193Z,100822.66
2023-05-09T11:45:07.616Z,100826.84
2023-05-09T11:47:52.882Z,100818.28
2023-05-09T11:50:36.788Z,100823.25
2023-05-09T11:53:20.894Z,100822.38
2023-05-09T11:56:06.602Z,100818.56
2023-05-09T11:58:53.164Z,100832.69
2023-05-09T12:01:38.768Z,100816.44
2023-05-09T12:04:22.907Z,100821.03
2023-05-09T12:07:10.350Z,100824.94
2023-05-09T12:09:54.534Z,100822.72
2023-05-09T12:12:43.593Z,100816.91
2023-05-09T12:15:28.033Z,100814.31
2023-05-09T12:18:13.537Z,100784.38
2023-05-09T12:20:57.496Z,100818.13
2023-05-09T12:23:41.718Z,100799.22
2023-05-09T12:26:25.583Z,100812.00
2023-05-09T12:29:09.770Z,100792.22
2023-05-09T12:31:55.111Z,100800.94
2023-05-09T12:34:40.409Z,100801.38
2023-05-09T12:37:24.381Z,100804.22
2023-05-09T12:40:12.575Z,100805.50
2023-05-09T12:43:00.971Z,100817.84
2023-05-09T12:45:44.890Z,100806.69
2023-05-09T12:48:28.862Z,100805.22
2023-05-09T12:51:19.182Z,100776.59
2023-05-09T12:54:06.058Z,100815.50
2023-05-09T12:56:52.211Z,100806.47
2023-05-09T12:59:36.362Z,100803.97
2023-05-09T13:02:20.417Z,100809.56
2023-05-09T13:05:10.573Z,100805.09
2023-05-09T13:07:58.225Z,100789.63
2023-05-09T13:10:42.167Z,100799.13
2023-05-09T13:13:27.724Z,100801.31
2023-05-09T13:16:13.453Z,100806.53
2023-05-09T13:18:58.906Z,100778.84
2023-05-09T13:21:42.722Z,100793.00
2023-05-09T13:24:28.226Z,100803.47
2023-05-09T13:27:13.413Z,100805.19
2023-05-09T13:29:57.333Z,100802.19
2023-05-09T13:32:41.336Z,100797.91
2023-05-09T13:35:25.196Z,100806.38
2023-05-09T13:38:08.982Z,100808.19
2023-05-09T13:40:54.282Z,100803.34
2023-05-09T13:43:38.466Z,100786.41
2023-05-09T13:46:22.824Z,100815.00
2023-05-09T13:49:07.070Z,100821.22
2023-05-09T13:51:51.123Z,100821.22
2023-05-09T13:54:35.445Z,100813.81
2023-05-09T13:57:20.649Z,100821.69
2023-05-09T14:00:05.383Z,100791.56
2023-05-09T14:02:56.451Z,100819.44
2023-05-09T14:05:40.318Z,100814.03
2023-05-09T14:08:24.562Z,100815.31
2023-05-09T14:11:09.453Z,100819.16
2023-05-09T14:13:54.833Z,100811.88
2023-05-09T14:16:39.076Z,100809.84
2023-05-09T14:19:23.101Z,100803.47
2023-05-09T14:22:07.080Z,100796.00
2023-05-09T14:24:51.125Z,100764.78
2023-05-09T14:27:37.039Z,100798.91
2023-05-09T14:30:22.793Z,100787.50
2023-05-09T14:33:07.289Z,100799.56
2023-05-09T14:35:51.376Z,100804.50
2023-05-09T14:38:35.882Z,100799.47
2023-05-09T14:41:21.403Z,100761.56
2023-05-09T14:44:06.279Z,100789.03
2023-05-09T14:46:51.749Z,100788.34
2023-05-09T14:49:35.863Z,100791.38
2023-05-09T14:52:19.896Z,100786.94
2023-05-09T14:55:06.272Z,100790.34
2023-05-09T14:57:50.819Z,100786.88
2023-05-09T15:00:34.903Z,100791.56
2023-05-09T15:03:20.239Z,100791.09
2023-05-09T15:06:04.604Z,100798.69
2023-05-09T15:08:48.590Z,100797.78
2023-05-09T15:11:43.690Z,100666.53
2023-05-09T15:14:32.026Z,100807.06
2023-05-09T15:17:16.326Z,100776.28
2023-05-09T15:20:03.027Z,100807.31
2023-05-09T15:22:49.886Z,100806.69
2023-05-09T15:25:34.891Z,100810.25
2023-05-09T15:28:19.097Z,100793.53
2023-05-09T15:31:04.004Z,100774.94
2023-05-09T15:33:47.927Z,100815.63
2023-05-09T15:36:34.145Z,100815.75
2023-05-09T15:39:18.440Z,100820.25
2023-05-09T15:42:04.400Z,100810.31
2023-05-09T15:44:48.458Z,100806.13
2023-05-09T15:47:32.553Z,100815.25
2023-05-09T15:50:16.814Z,100813.19
2023-05-09T15:53:02.464Z,100806.09
2023-05-09T15:55:46.490Z,100820.41
2023-05-09T15:58:30.957Z,100813.03
2023-05-09T16:01:14.817Z,100819.97
2023-05-09T16:03:59.305Z,100815.63
2023-05-09T16:06:43.954Z,100814.84
2023-05-09T16:09:29.464Z,100805.13
2023-05-09T16:12:13.696Z,100813.97
2023-05-09T16:14:57.611Z,100808.22
2023-05-09T16:17:41.777Z,100815.41
2023-05-09T16:20:26.062Z,100815.16
2023-05-09T16:23:10.069Z,100817.47
2023-05-09T16:25:55.430Z,100819.22
2023-05-09T16:28:40.437Z,100816.69
2023-05-09T16:31:26.501Z,100799.06
2023-05-09T16:34:10.604Z,100828.69
2023-05-09T16:36:54.477Z,100824.41
2023-05-09T16:39:38.567Z,100829.53
2023-05-09T16:42:23.815Z,100810.78
2023-05-09T16:45:09.219Z,100835.81
2023-05-09T16:47:55.662Z,100829.59
2023-05-09T16:50:43.221Z,100840.03
2023-05-09T16:53:28.081Z,100827.16
2023-05-09T16:56:12.512Z,100790.41
2023-05-09T16:58:58.356Z,100823.31
2023-05-09T17:01:43.494Z,100809.78
2023-05-09T17:04:27.954Z,100804.94
2023-05-09T17:07:12.830Z,100803.56
2023-05-09T17:09:56.861Z,100805.81
2023-05-09T17:12:40.934Z,100845.63
2023-05-09T17:15:27.017Z,100834.41
2023-05-09T17:18:12.317Z,100843.56
2023-05-09T17:20:57.712Z,100841.50
2023-05-09T17:23:41.739Z,100843.25
2023-05-09T17:26:26.021Z,100845.56
2023-05-09T17:29:10.027Z,100846.66
2023-05-09T17:31:55.335Z,100850.69
2023-05-09T17:34:40.706Z,100835.72
2023-05-09T17:37:25.038Z,100849.66
2023-05-09T17:40:10.402Z,100852.72
2023-05-09T17:42:54.666Z,100857.44
2023-05-09T17:45:38.832Z,100848.06
2023-05-09T17:48:24.600Z,100865.13
2023-05-09T17:51:08.928Z,100864.78
2023-05-09T17:53:53.284Z,100835.66
2023-05-09T17:56:37.517Z,100844.72
2023-05-09T17:59:22.058Z,100837.78
2023-05-09T18:02:06.298Z,100877.16
2023-05-09T18:04:52.586Z,100880.84
2023-05-09T18:07:37.252Z,100886.38
2023-05-09T18:10:21.720Z,100846.91
2023-05-09T18:13:06.116Z,100846.59
2023-05-09T18:15:50.307Z,100843.38
2023-05-09T18:18:35.720Z,100852.41
2023-05-09T18:21:21.511Z,100879.91
2023-05-09T18:24:06.391Z,100817.03
2023-05-09T18:26:50.908Z,100875.69
2023-05-09T18:29:34.958Z,100854.88
2023-05-09T18:32:19.433Z,100854.41
2023-05-09T18:35:04.319Z,100850.78
2023-05-09T18:37:50.183Z,100857.28
2023-05-09T18:40:34.585Z,100860.31
2023-05-09T18:43:20.863Z,100859.13
2023-05-09T18:46:05.365Z,100878.56
2023-05-09T18:48:51.521Z,100888.91
2023-05-09T18:51:36.148Z,100853.97
2023-05-09T18:54:22.008Z,100845.31
2023-05-09T18:57:06.422Z,100850.06
2023-05-09T18:59:52.182Z,100887.88
2023-05-09T19:02:36.555Z,100847.38
2023-05-09T19:05:21.148Z,100895.22
2023-05-09T19:08:06.104Z,100900.75
2023-05-09T19:10:52.464Z,100895.66
2023-05-09T19:13:38.566Z,100898.50
2023-05-09T19:16:23.098Z,100864.97
2023-05-09T19:19:08.163Z,100896.94
2023-05-09T19:21:52.349Z,100871.72
2023-05-09T19:24:37.065Z,100870.25
2023-05-09T19:27:22.838Z,100843.00
2023-05-09T19:30:08.273Z,100869.50
2023-05-09T19:32:54.111Z,100876.78
2023-05-09T19:35:38.743Z,100834.16
2023-05-09T19:38:22.998Z,100875.06
2023-05-09T19:41:07.363Z,100909.81
2023-05-09T19:43:52.995Z,100920.47
2023-05-09T19:46:38.428Z,100881.97
2023-05-09T19:49:23.406Z,100924.34
2023-05-09T19:52:08.488Z,100913.84
2023-05-09T19:54:53.440Z,100910.22
2023-05-09T19:57:37.659Z,100912.16
2023-05-09T20:00:23.606Z,100911.34
2023-05-09T20:03:08.330Z,100877.16
2023-05-09T20:05:52.904Z,100875.59
2023-05-09T20:08:37.385Z,100909.09
2023-05-09T20:11:22.331Z,100909.00
2023-05-09T20:14:06.382Z,100899.47
2023-05-09T20:16:51.631Z,100903.75
2023-05-09T20:19:36.071Z,100891.00
2023-05-09T20:22:19.963Z,100863.91
2023-05-09T20:25:04.049Z,100870.16
2023-05-09T20:27:48.782Z,100896.31
2023-05-09T20:30:32.899Z,100892.94
2023-05-09T20:33:19.056Z,100889.13
2023-05-09T20:36:03.102Z,100882.88
2023-05-09T20:38:46.930Z,100885.41
2023-05-09T20:41:31.497Z,100874.34
2023-05-09T20:44:16.208Z,100884.88
2023-05-09T20:47:00.574Z,100878.34
2023-05-09T20:49:45.933Z,100880.97
2023-05-09T20:52:29.931Z,100882.38
2023-05-09T20:55:13.818Z,100875.53
2023-05-09T20:57:58.027Z,100862.81
2023-05-09T21:00:42.477Z,100857.47
2023-05-09T21:03:26.907Z,100865.97
2023-05-09T21:06:12.425Z,100860.19
2023-05-09T21:08:56.645Z,100857.47
2023-05-09T21:11:40.832Z,100863.78
2023-05-09T21:14:24.717Z,100857.56
2023-05-09T21:17:08.756Z,100847.78
2023-05-09T21:19:52.771Z,100829.25
2023-05-09T21:22:38.128Z,100841.13
2023-05-09T21:25:22.277Z,100837.94
2023-05-09T21:28:06.742Z,100841.50
2023-05-09T21:30:52.984Z,100840.50
2023-05-09T21:33:37.511Z,100841.22
2023-05-09T21:36:21.536Z,100836.50
2023-05-09T21:39:09.516Z,100846.09
2023-05-09T21:41:53.611Z,100838.78
2023-05-09T21:44:37.480Z,100832.16
2023-05-09T21:47:21.977Z,100836.16
2023-05-09T21:50:07.285Z,100826.69
2023-05-09T21:52:51.133Z,100828.63
2023-05-09T21:55:37.998Z,100833.00
2023-05-09T21:58:22.201Z,100844.63
2023-05-09T22:01:06.438Z,100834.22
2023-05-09T22:03:50.844Z,100804.44
2023-05-09T22:06:35.014Z,100826.09
2023-05-09T22:09:18.985Z,100801.19
2023-05-09T22:12:04.356Z,100834.38
2023-05-09T22:14:55.858Z,100829.38
2023-05-09T22:17:40.742Z,100824.78
2023-05-09T22:20:25.214Z,100822.34
2023-05-09T22:23:09.121Z,100824.22
2023-05-09T22:25:53.002Z,100829.28
2023-05-09T22:28:38.557Z,100823.84
2023-05-09T22:31:22.999Z,100785.78
2023-05-09T22:34:07.003Z,100828.00
2023-05-09T22:36:51.077Z,100785.78
2023-05-09T22:39:35.061Z,100820.31
2023-05-09T22:42:19.062Z,100821.78
2023-05-09T22:45:05.838Z,100821.00
2023-05-09T22:47:50.599Z,100787.56
2023-05-09T22:50:35.258Z,100815.75
2023-05-09T22:53:19.246Z,100792.53
2023-05-09T22:56:03.372Z,100806.88
2023-05-09T22:58:47.399Z,100765.72
2023-05-09T23:01:33.374Z,100801.63
2023-05-09T23:04:17.746Z,100779.59
2023-05-09T23:07:01.861Z,100789.09
2023-05-09T23:09:45.741Z,100797.75
2023-05-09T23:12:30.207Z,100791.59
2023-05-09T23:15:14.485Z,100793.63
2023-05-09T23:18:00.184Z,100787.25
2023-05-09T23:20:44.343Z,100790.56
2023-05-09T23:23:30.009Z,100789.84
2023-05-09T23:26:13.967Z,100792.41
2023-05-09T23:28:58.067Z,100797.13
2023-05-09T23:31:42.064Z,100790.84
2023-05-09T23:34:27.418Z,100785.16
2023-05-09T23:37:12.158Z,100795.47
2023-05-09T23:39:56.189Z,100789.41
2023-05-09T23:42:40.073Z,100774.22
2023-05-09T23:45:24.015Z,100772.88
2023-05-09T23:48:08.403Z,100773.72
2023-05-09T23:50:53.771Z,100776.56
2023-05-09T23:53:37.695Z,100750.66
2023-05-09T23:56:22.588Z,100729.91
2023-05-09T23:59:06.702Z,100754.44
